createdAt,value
2022-08-23T00:00:24.733Z,1.62
2022-08-23T00:03:33.934Z,1.75
2022-08-23T00:06:39.091Z,1.80
2022-08-23T00:09:43.021Z,2.12
2022-08-23T00:12:48.191Z,1.95
2022-08-23T00:15:51.843Z,1.80
2022-08-23T00:18:55.489Z,1.90
2022-08-23T00:22:00.235Z,1.92
2022-08-23T00:25:04.428Z,1.90
2022-08-23T00:28:12.451Z,1.80
2022-08-23T00:31:19.332Z,1.90
2022-08-23T00:34:23.666Z,1.60
2022-08-23T00:37:27.437Z,1.45
2022-08-23T00:40:30.293Z,1.87
2022-08-23T00:43:59.239Z,1.70
2022-08-23T00:47:05.828Z,1.80
2022-08-23T00:50:29.943Z,1.83
2022-08-23T00:53:38.531Z,1.85
2022-08-23T00:56:45.907Z,2.05
2022-08-23T00:59:51.409Z,1.95
2022-08-23T01:02:55.070Z,1.90
2022-08-23T01:06:16.111Z,1.80
2022-08-23T01:09:21.679Z,2.12
2022-08-23T01:12:33.773Z,1.87
2022-08-23T01:15:43.386Z,2.37
2022-08-23T01:18:50.087Z,2.37
2022-08-23T01:22:17.126Z,2.53
2022-08-23T01:25:28.648Z,2.33
2022-08-23T01:28:32.033Z,2.85
2022-08-23T01:31:36.981Z,2.50
2022-08-23T01:34:44.921Z,2.50
2022-08-23T01:37:55.483Z,2.37
2022-08-23T01:41:01.665Z,2.35
2022-08-23T01:44:06.992Z,2.37
2022-08-23T01:47:11.681Z,2.75
2022-08-23T01:50:14.531Z,2.55
2022-08-23T01:53:23.532Z,2.60
2022-08-23T01:56:38.378Z,2.80
2022-08-23T01:59:44.622Z,2.85
2022-08-23T02:02:48.188Z,3.20
2022-08-23T02:09:03.631Z,2.80
2022-08-23T02:12:08.613Z,2.97
2022-08-23T02:15:12.690Z,3.42
2022-08-23T02:18:18.784Z,3.50
2022-08-23T02:21:22.301Z,4.18
2022-08-23T02:24:31.432Z,3.92
2022-08-23T02:27:37.162Z,3.72
2022-08-23T02:30:42.435Z,4.05
2022-08-23T02:33:48.565Z,4.20
2022-08-23T02:36:52.785Z,4.25
2022-08-23T02:40:03.500Z,4.25
2022-08-23T02:43:08.335Z,4.85
2022-08-23T02:46:14.955Z,4.30
2022-08-23T02:49:18.813Z,4.78
2022-08-23T02:52:22.312Z,3.80
2022-08-23T02:55:25.818Z,3.03
2022-08-23T02:58:29.188Z,2.70
2022-08-23T03:01:37.616Z,3.40
2022-08-23T03:04:42.627Z,2.90
2022-08-23T03:07:45.723Z,2.83
2022-08-23T03:10:52.854Z,2.55
2022-08-23T03:13:56.583Z,2.87
2022-08-23T03:17:05.473Z,3.47
2022-08-23T03:20:08.983Z,3.53
2022-08-23T03:23:14.596Z,2.95
2022-08-23T03:26:17.884Z,4.15
2022-08-23T03:29:20.816Z,3.92
2022-08-23T03:32:29.676Z,3.58
2022-08-23T03:35:32.788Z,3.80
2022-08-23T03:38:39.035Z,3.70
2022-08-23T03:41:44.527Z,3.80
2022-08-23T03:44:50.198Z,4.18
2022-08-23T03:48:04.820Z,3.53
2022-08-23T03:51:08.569Z,3.42
2022-08-23T03:54:14.160Z,3.53
2022-08-23T03:57:17.386Z,3.10
2022-08-23T04:00:23.188Z,3.28
2022-08-23T04:03:28.976Z,3.50
2022-08-23T04:06:34.099Z,3.85
2022-08-23T04:09:39.465Z,3.42
2022-08-23T04:12:42.802Z,4.22
2022-08-23T04:15:50.079Z,3.70
2022-08-23T04:18:53.036Z,4.00
2022-08-23T04:21:56.578Z,4.78
2022-08-23T04:25:00.541Z,5.05
2022-08-23T04:28:05.353Z,4.85
2022-08-23T04:31:11.576Z,4.97
2022-08-23T04:34:17.333Z,4.57
2022-08-23T04:37:26.256Z,4.60
2022-08-23T04:40:48.445Z,5.28
2022-08-23T04:43:57.075Z,3.75
2022-08-23T04:47:00.494Z,4.40
2022-08-23T04:50:06.784Z,3.70
2022-08-23T04:53:10.169Z,4.65
2022-08-23T04:56:13.516Z,4.68
2022-08-23T04:59:16.561Z,4.70
2022-08-23T05:02:20.667Z,4.28
2022-08-23T05:05:23.838Z,4.03
2022-08-23T05:08:26.884Z,4.55
2022-08-23T05:11:30.690Z,4.62
2022-08-23T05:14:34.567Z,4.20
2022-08-23T05:17:38.376Z,5.07
2022-08-23T05:20:41.548Z,4.37
2022-08-23T05:23:50.979Z,4.70
2022-08-23T05:27:01.870Z,4.60
2022-08-23T05:33:09.077Z,4.65
2022-08-23T05:36:14.567Z,4.15
2022-08-23T05:39:38.425Z,4.83
2022-08-23T05:43:05.054Z,4.03
2022-08-23T05:46:47.914Z,3.75
2022-08-23T05:50:13.704Z,4.60
2022-08-23T05:53:39.805Z,4.25
2022-08-23T05:57:03.089Z,4.68
2022-08-23T06:00:38.280Z,5.30
2022-08-23T06:04:15.024Z,5.45
2022-08-23T06:07:38.115Z,5.47
2022-08-23T06:11:03.913Z,5.87
2022-08-23T06:14:29.099Z,5.53
2022-08-23T06:17:57.243Z,5.50
2022-08-23T06:21:11.421Z,5.60
2022-08-23T06:24:14.971Z,6.45
2022-08-23T06:27:21.195Z,5.65
2022-08-23T06:30:24.355Z,5.53
2022-08-23T06:33:31.808Z,5.37
2022-08-23T06:36:37.692Z,4.90
2022-08-23T06:39:48.419Z,5.43
2022-08-23T06:43:13.787Z,4.62
2022-08-23T06:46:30.082Z,5.18
2022-08-23T06:49:54.652Z,4.35
2022-08-23T06:53:09.966Z,4.87
2022-08-23T06:56:15.222Z,5.03
2022-08-23T06:59:19.037Z,4.90
2022-08-23T07:02:28.162Z,4.82
2022-08-23T07:05:55.808Z,4.82
2022-08-23T07:09:02.499Z,5.03
2022-08-23T07:12:07.022Z,4.55
2022-08-23T07:15:12.560Z,4.25
2022-08-23T07:18:30.707Z,4.47
2022-08-23T07:21:34.220Z,4.80
2022-08-23T07:24:38.522Z,4.40
2022-08-23T07:27:42.796Z,4.90
2022-08-23T07:30:49.829Z,4.87
2022-08-23T07:34:02.608Z,4.43
2022-08-23T07:37:28.553Z,4.57
2022-08-23T07:40:39.003Z,4.60
2022-08-23T07:43:52.093Z,4.75
2022-08-23T07:46:57.097Z,7.40
2022-08-23T07:53:08.949Z,5.40
2022-08-23T07:56:17.383Z,5.22
2022-08-23T07:59:23.908Z,4.55
2022-08-23T08:02:31.160Z,4.47
2022-08-23T08:06:10.839Z,4.70
2022-08-23T08:09:41.272Z,4.70
2022-08-23T08:13:07.874Z,4.78
2022-08-23T08:16:55.476Z,4.28
2022-08-23T08:20:31.304Z,4.18
2022-08-23T08:24:09.130Z,4.70
2022-08-23T08:27:25.881Z,4.50
2022-08-23T08:30:46.327Z,4.03
2022-08-23T08:34:27.137Z,4.30
2022-08-23T08:37:55.811Z,4.30
2022-08-23T08:41:19.857Z,4.10
2022-08-23T08:45:23.872Z,4.10
2022-08-23T08:48:46.014Z,4.00
2022-08-23T08:52:11.216Z,3.50
2022-08-23T08:55:27.879Z,3.58
2022-08-23T08:58:50.052Z,4.68
2022-08-23T09:02:35.707Z,3.50
2022-08-23T09:06:15.394Z,3.67
2022-08-23T09:13:58.197Z,3.40
2022-08-23T09:17:51.295Z,3.60
2022-08-23T09:21:28.346Z,4.90
2022-08-23T09:25:12.977Z,3.90
2022-08-23T09:29:19.356Z,3.67
2022-08-23T09:32:48.002Z,3.70
2022-08-23T09:36:36.677Z,3.60
2022-08-23T09:44:02.636Z,3.20
2022-08-23T09:55:07.218Z,3.75
2022-08-23T09:58:26.738Z,3.50
2022-08-23T10:01:38.750Z,3.50
2022-08-23T10:12:14.510Z,3.20
2022-08-23T10:15:53.732Z,3.10
2022-08-23T10:19:20.033Z,2.83
2022-08-23T10:23:06.965Z,2.90
2022-08-23T10:26:36.983Z,3.17
2022-08-23T10:30:08.715Z,3.00
2022-08-23T10:34:08.693Z,3.47
2022-08-23T10:37:36.259Z,3.40
2022-08-23T10:40:54.113Z,3.10
2022-08-23T10:44:40.719Z,2.03
2022-08-23T10:48:27.180Z,2.70
2022-08-23T10:52:00.771Z,2.40
2022-08-23T10:55:36.965Z,2.70
2022-08-23T10:58:49.306Z,2.40
2022-08-23T11:02:33.432Z,2.62
2022-08-23T11:05:39.310Z,2.60
2022-08-23T11:08:47.931Z,3.00
2022-08-23T11:12:22.701Z,2.60
2022-08-23T11:16:07.502Z,2.70
2022-08-23T11:19:47.794Z,2.00
2022-08-23T11:22:56.757Z,2.42
2022-08-23T11:26:25.743Z,2.47
2022-08-23T11:29:43.421Z,2.35
2022-08-23T11:33:31.891Z,1.87
2022-08-23T11:40:18.404Z,2.50
2022-08-23T11:43:24.924Z,2.60
2022-08-23T11:46:32.583Z,2.00
2022-08-23T11:50:05.448Z,2.37
2022-08-23T11:53:22.797Z,1.90
2022-08-23T11:56:55.014Z,1.95
2022-08-23T12:00:44.159Z,1.85
2022-08-23T12:04:38.772Z,2.00
2022-08-23T12:08:23.301Z,2.30
2022-08-23T12:11:55.549Z,2.22
2022-08-23T12:15:20.017Z,1.77
2022-08-23T12:18:51.033Z,2.00
2022-08-23T12:21:56.918Z,1.90
2022-08-23T12:25:24.147Z,2.22
2022-08-23T12:28:42.424Z,2.10
2022-08-23T12:32:20.317Z,2.00
2022-08-23T12:35:44.986Z,1.80
2022-08-23T12:39:20.394Z,1.90
2022-08-23T12:42:36.663Z,1.90
2022-08-23T12:45:49.887Z,2.05
2022-08-23T12:48:55.543Z,2.28
2022-08-23T12:52:31.494Z,1.85
2022-08-23T12:56:01.068Z,2.00
2022-08-23T12:59:07.857Z,2.20
2022-08-23T13:02:32.231Z,2.35
2022-08-23T13:05:56.449Z,2.83
2022-08-23T13:09:32.615Z,2.70
2022-08-23T13:12:40.319Z,2.72
2022-08-23T13:15:53.892Z,2.67
2022-08-23T13:19:13.745Z,2.42
2022-08-23T13:22:19.927Z,2.50
2022-08-23T13:25:54.040Z,2.62
2022-08-23T13:32:31.954Z,3.00
2022-08-23T13:35:49.798Z,3.25
2022-08-23T13:39:28.084Z,3.08
2022-08-23T13:42:48.450Z,3.05
2022-08-23T13:46:26.596Z,2.72
2022-08-23T13:49:40.635Z,3.12
2022-08-23T13:53:13.380Z,2.80
2022-08-23T13:56:04.357Z,3.05
2022-08-23T13:59:35.932Z,2.97
2022-08-23T14:03:05.311Z,2.30
2022-08-23T14:06:32.158Z,2.65
2022-08-23T14:09:59.140Z,2.78
2022-08-23T14:13:29.962Z,2.90
2022-08-23T14:16:47.015Z,2.50
2022-08-23T14:23:43.405Z,2.70
2022-08-23T14:27:14.644Z,2.92
2022-08-23T14:30:31.097Z,2.65
2022-08-23T14:33:49.344Z,2.42
2022-08-23T14:38:02.795Z,2.60
2022-08-23T14:40:58.353Z,3.05
2022-08-23T14:44:14.265Z,2.50
2022-08-23T14:47:35.622Z,2.60
2022-08-23T14:51:05.774Z,2.40
2022-08-23T14:54:17.762Z,2.75
2022-08-23T14:57:35.458Z,2.53
2022-08-23T15:00:48.715Z,3.17
2022-08-23T15:03:53.285Z,2.55
2022-08-23T15:07:17.240Z,3.08
2022-08-23T15:13:56.077Z,2.62
2022-08-23T15:17:20.479Z,2.47
2022-08-23T15:20:41.304Z,2.62
2022-08-23T15:23:56.958Z,2.80
2022-08-23T15:27:34.772Z,2.50
2022-08-23T15:31:01.109Z,2.30
2022-08-23T15:34:33.484Z,2.62
2022-08-23T15:38:04.748Z,2.50
2022-08-23T15:41:12.376Z,2.72
2022-08-23T15:44:32.568Z,2.90
2022-08-23T15:51:58.721Z,2.62
2022-08-23T15:55:01.746Z,2.70
2022-08-23T15:58:20.456Z,2.42
2022-08-23T16:01:57.506Z,2.78
2022-08-23T16:05:19.390Z,2.83
2022-08-23T16:08:48.847Z,2.42
2022-08-23T16:12:15.834Z,2.80
2022-08-23T16:15:28.998Z,2.80
2022-08-23T16:18:33.778Z,2.90
2022-08-23T16:21:44.339Z,2.75
2022-08-23T16:25:19.624Z,2.97
2022-08-23T16:28:57.846Z,2.60
2022-08-23T16:32:29.116Z,2.83
2022-08-23T16:43:16.803Z,2.60
2022-08-23T16:46:47.976Z,2.42
2022-08-23T16:50:24.316Z,2.45
2022-08-23T16:54:19.674Z,2.50
2022-08-23T16:57:36.271Z,2.47
2022-08-23T17:00:56.472Z,2.22
2022-08-23T17:04:15.487Z,2.30
2022-08-23T17:07:35.341Z,2.60
2022-08-23T17:10:39.021Z,2.33
2022-08-23T17:13:44.744Z,2.70
2022-08-23T17:16:51.536Z,2.35
2022-08-23T17:19:54.637Z,2.85
2022-08-23T17:22:59.753Z,2.42
2022-08-23T17:26:04.079Z,2.65
2022-08-23T17:29:09.728Z,2.50
2022-08-23T17:32:30.259Z,2.85
2022-08-23T17:35:36.140Z,2.30
2022-08-23T17:39:00.187Z,2.15
2022-08-23T17:42:20.760Z,2.37
2022-08-23T17:45:23.990Z,2.40
2022-08-23T17:48:29.397Z,2.60
2022-08-23T17:51:32.884Z,2.30
2022-08-23T17:54:40.506Z,2.22
2022-08-23T17:57:44.959Z,2.17
2022-08-23T18:04:07.329Z,2.20
2022-08-23T18:07:33.090Z,2.40
2022-08-23T18:10:38.683Z,2.30
2022-08-23T18:13:42.274Z,2.20
2022-08-23T18:16:47.950Z,2.22
2022-08-23T18:19:57.446Z,2.30
2022-08-23T18:23:01.480Z,2.78
2022-08-23T18:26:33.499Z,2.45
2022-08-23T18:29:53.739Z,2.15
2022-08-23T18:32:59.456Z,2.25
2022-08-23T18:36:10.960Z,2.12
2022-08-23T18:42:41.732Z,2.78
2022-08-23T18:45:49.370Z,2.75
2022-08-23T18:48:53.726Z,2.70
2022-08-23T18:51:58.929Z,2.58
2022-08-23T18:55:02.911Z,2.42
2022-08-23T18:58:21.523Z,2.62
2022-08-23T19:01:39.470Z,2.53
2022-08-23T19:04:44.753Z,2.80
2022-08-23T19:07:50.294Z,2.60
2022-08-23T19:10:55.281Z,2.37
2022-08-23T19:14:01.106Z,2.30
2022-08-23T19:17:08.052Z,2.33
2022-08-23T19:20:12.069Z,2.47
2022-08-23T19:23:15.052Z,2.12
2022-08-23T19:26:25.783Z,2.53
2022-08-23T19:29:31.823Z,2.20
2022-08-23T19:32:42.249Z,2.10
2022-08-23T19:35:47.220Z,2.10
2022-08-23T19:38:52.492Z,2.08
2022-08-23T19:41:57.554Z,2.00
2022-08-23T19:45:07.811Z,1.90
2022-08-23T19:48:13.222Z,2.28
2022-08-23T19:51:19.550Z,2.30
2022-08-23T19:54:36.196Z,2.10
2022-08-23T19:57:49.495Z,2.20
2022-08-23T20:00:54.634Z,1.92
2022-08-23T20:03:58.065Z,2.33
2022-08-23T20:07:30.602Z,1.92
2022-08-23T20:10:53.342Z,1.67
2022-08-23T20:14:05.176Z,2.10
2022-08-23T20:17:32.297Z,2.08
2022-08-23T20:20:53.585Z,2.25
2022-08-23T20:24:02.071Z,2.15
2022-08-23T20:27:30.802Z,2.13
2022-08-23T20:30:46.551Z,1.73
2022-08-23T20:33:53.482Z,2.05
2022-08-23T20:36:56.632Z,1.90
2022-08-23T20:40:05.597Z,2.03
2022-08-23T20:43:11.162Z,2.00
2022-08-23T20:46:16.490Z,2.30
2022-08-23T20:49:30.600Z,2.20
2022-08-23T20:52:45.529Z,1.87
2022-08-23T20:55:49.495Z,2.15
2022-08-23T20:58:52.792Z,2.20
2022-08-23T21:01:56.161Z,2.30
2022-08-23T21:04:59.688Z,2.15
2022-08-23T21:08:22.237Z,2.08
2022-08-23T21:11:27.414Z,2.60
2022-08-23T21:14:30.312Z,2.15
2022-08-23T21:17:33.258Z,2.47
2022-08-23T21:20:36.464Z,2.75
2022-08-23T21:23:40.043Z,2.37
2022-08-23T21:26:42.598Z,2.00
2022-08-23T21:29:47.358Z,2.12
2022-08-23T21:32:50.244Z,2.37
2022-08-23T21:35:55.801Z,2.12
2022-08-23T21:38:59.465Z,2.10
2022-08-23T21:42:05.959Z,2.10
2022-08-23T21:45:20.033Z,1.75
2022-08-23T21:48:26.082Z,2.00
2022-08-23T21:51:31.315Z,2.05
2022-08-23T21:54:43.277Z,1.95
2022-08-23T21:57:46.695Z,2.10
2022-08-23T22:00:50.240Z,2.17
2022-08-23T22:03:57.186Z,2.03
2022-08-23T22:07:00.983Z,2.05
2022-08-23T22:10:10.641Z,1.90
2022-08-23T22:13:14.439Z,2.40
2022-08-23T22:16:24.960Z,1.75
2022-08-23T22:19:47.991Z,2.20
2022-08-23T22:23:13.170Z,2.00
2022-08-23T22:26:15.728Z,2.35
2022-08-23T22:29:19.439Z,2.00
2022-08-23T22:32:23.183Z,2.17
2022-08-23T22:35:28.820Z,2.20
2022-08-23T22:38:31.647Z,2.10
2022-08-23T22:41:34.834Z,2.20
2022-08-23T22:44:38.292Z,1.95
2022-08-23T22:47:41.752Z,2.35
2022-08-23T22:50:44.993Z,2.42
2022-08-23T22:53:56.130Z,2.42
2022-08-23T22:56:59.022Z,2.12
2022-08-23T23:00:01.863Z,2.22
2022-08-23T23:03:04.957Z,2.28
2022-08-23T23:06:07.887Z,2.53
2022-08-23T23:09:15.747Z,2.00
2022-08-23T23:12:38.819Z,2.45
2022-08-23T23:15:44.064Z,2.42
2022-08-23T23:19:06.684Z,2.40
2022-08-23T23:22:11.807Z,2.10
2022-08-23T23:25:16.415Z,2.50
2022-08-23T23:28:23.579Z,2.35
2022-08-23T23:31:28.865Z,2.53
2022-08-23T23:34:33.932Z,2.12
2022-08-23T23:37:36.823Z,1.87
2022-08-23T23:40:39.885Z,2.10
2022-08-23T23:43:44.509Z,2.22
2022-08-23T23:46:49.828Z,2.25
2022-08-23T23:49:53.239Z,2.42
2022-08-23T23:53:17.692Z,2.40
2022-08-23T23:56:25.575Z,1.95
2022-08-23T23:59:28.388Z,2.50
